sensor_id;sensor_type;location;lat;lon;timestamp;P1;durP1;ratioP1;P2;durP2;ratioP2
55037;SDS011;40937;53.594;10.034;2022-10-23T00:00:30;16.55;;;10.98;;
55037;SDS011;40937;53.594;10.034;2022-10-23T00:02:56;19.20;;;10.25;;
55037;SDS011;40937;53.594;10.034;2022-10-23T00:05:24;14.77;;;10.02;;
55037;SDS011;40937;53.594;10.034;2022-10-23T00:07:52;16.40;;;10.20;;
55037;SDS011;40937;53.594;10.034;2022-10-23T00:10:20;14.30;;;10.98;;
55037;SDS011;40937;53.594;10.034;2022-10-23T00:12:49;15.05;;;10.75;;
55037;SDS011;40937;53.594;10.034;2022-10-23T00:15:17;16.02;;;11.10;;
55037;SDS011;40937;53.594;10.034;2022-10-23T00:17:46;13.27;;;10.63;;
55037;SDS011;40937;53.594;10.034;2022-10-23T00:20:14;16.55;;;10.00;;
55037;SDS011;40937;53.594;10.034;2022-10-23T00:22:42;14.02;;;10.07;;
55037;SDS011;40937;53.594;10.034;2022-10-23T00:25:08;11.90;;;10.00;;
55037;SDS011;40937;53.594;10.034;2022-10-23T00:27:35;18.23;;;10.10;;
55037;SDS011;40937;53.594;10.034;2022-10-23T00:30:04;17.75;;;10.05;;
55037;SDS011;40937;53.594;10.034;2022-10-23T00:32:32;17.65;;;10.45;;
55037;SDS011;40937;53.594;10.034;2022-10-23T00:34:58;19.27;;;10.38;;
55037;SDS011;40937;53.594;10.034;2022-10-23T00:37:25;15.57;;;10.05;;
55037;SDS011;40937;53.594;10.034;2022-10-23T00:39:51;14.70;;;9.52;;
55037;SDS011;40937;53.594;10.034;2022-10-23T00:42:19;24.40;;;10.07;;
55037;SDS011;40937;53.594;10.034;2022-10-23T00:47:46;11.55;;;8.73;;
55037;SDS011;40937;53.594;10.034;2022-10-23T00:50:14;17.35;;;9.43;;
55037;SDS011;40937;53.594;10.034;2022-10-23T00:52:41;17.70;;;9.77;;
55037;SDS011;40937;53.594;10.034;2022-10-23T00:55:11;18.77;;;9.93;;
55037;SDS011;40937;53.594;10.034;2022-10-23T00:57:40;12.30;;;9.05;;
55037;SDS011;40937;53.594;10.034;2022-10-23T01:00:11;16.45;;;9.93;;
55037;SDS011;40937;53.594;10.034;2022-10-23T01:02:41;12.25;;;9.35;;
55037;SDS011;40937;53.594;10.034;2022-10-23T01:05:08;12.73;;;8.93;;
55037;SDS011;40937;53.594;10.034;2022-10-23T01:07:36;14.70;;;9.90;;
55037;SDS011;40937;53.594;10.034;2022-10-23T01:10:10;18.50;;;10.20;;
55037;SDS011;40937;53.594;10.034;2022-10-23T01:12:43;16.75;;;9.40;;
55037;SDS011;40937;53.594;10.034;2022-10-23T01:15:19;12.50;;;9.88;;
55037;SDS011;40937;53.594;10.034;2022-10-23T01:17:51;10.48;;;9.10;;
55037;SDS011;40937;53.594;10.034;2022-10-23T01:20:26;20.88;;;10.70;;
55037;SDS011;40937;53.594;10.034;2022-10-23T01:23:04;20.40;;;11.05;;
55037;SDS011;40937;53.594;10.034;2022-10-23T01:25:49;13.45;;;10.25;;
55037;SDS011;40937;53.594;10.034;2022-10-23T01:28:29;15.02;;;9.43;;
55037;SDS011;40937;53.594;10.034;2022-10-23T01:30:59;16.02;;;9.63;;
55037;SDS011;40937;53.594;10.034;2022-10-23T01:33:34;11.50;;;10.02;;
55037;SDS011;40937;53.594;10.034;2022-10-23T01:36:09;16.45;;;10.55;;
55037;SDS011;40937;53.594;10.034;2022-10-23T01:38:39;12.55;;;9.43;;
55037;SDS011;40937;53.594;10.034;2022-10-23T01:41:17;13.95;;;9.85;;
55037;SDS011;40937;53.594;10.034;2022-10-23T01:43:51;10.00;;;8.85;;
55037;SDS011;40937;53.594;10.034;2022-10-23T01:46:21;17.42;;;9.80;;
55037;SDS011;40937;53.594;10.034;2022-10-23T01:48:51;13.15;;;8.88;;
55037;SDS011;40937;53.594;10.034;2022-10-23T01:51:20;13.93;;;10.20;;
55037;SDS011;40937;53.594;10.034;2022-10-23T01:53:51;16.95;;;10.75;;
55037;SDS011;40937;53.594;10.034;2022-10-23T01:56:21;11.98;;;9.95;;
55037;SDS011;40937;53.594;10.034;2022-10-23T01:58:54;22.92;;;10.25;;
55037;SDS011;40937;53.594;10.034;2022-10-23T02:01:26;13.88;;;10.20;;
55037;SDS011;40937;53.594;10.034;2022-10-23T02:03:55;18.83;;;10.77;;
55037;SDS011;40937;53.594;10.034;2022-10-23T02:06:25;11.63;;;10.02;;
55037;SDS011;40937;53.594;10.034;2022-10-23T02:08:51;12.82;;;10.27;;
55037;SDS011;40937;53.594;10.034;2022-10-23T02:11:18;13.80;;;10.50;;
55037;SDS011;40937;53.594;10.034;2022-10-23T02:13:48;14.35;;;11.50;;
55037;SDS011;40937;53.594;10.034;2022-10-23T02:16:23;14.65;;;11.23;;
55037;SDS011;40937;53.594;10.034;2022-10-23T02:19:01;17.73;;;11.73;;
55037;SDS011;40937;53.594;10.034;2022-10-23T02:21:37;20.50;;;12.32;;
55037;SDS011;40937;53.594;10.034;2022-10-23T02:24:14;17.10;;;12.93;;
55037;SDS011;40937;53.594;10.034;2022-10-23T02:26:47;13.90;;;11.75;;
55037;SDS011;40937;53.594;10.034;2022-10-23T02:29:23;19.30;;;12.45;;
55037;SDS011;40937;53.594;10.034;2022-10-23T02:31:56;15.50;;;12.25;;
55037;SDS011;40937;53.594;10.034;2022-10-23T02:34:23;17.20;;;12.93;;
55037;SDS011;40937;53.594;10.034;2022-10-23T02:36:50;16.52;;;12.52;;
55037;SDS011;40937;53.594;10.034;2022-10-23T02:39:19;15.20;;;11.55;;
55037;SDS011;40937;53.594;10.034;2022-10-23T02:41:48;18.02;;;12.50;;
55037;SDS011;40937;53.594;10.034;2022-10-23T02:44:27;14.88;;;12.05;;
55037;SDS011;40937;53.594;10.034;2022-10-23T02:47:14;13.95;;;11.45;;
55037;SDS011;40937;53.594;10.034;2022-10-23T02:49:59;16.15;;;12.75;;
55037;SDS011;40937;53.594;10.034;2022-10-23T02:52:36;15.07;;;12.60;;
55037;SDS011;40937;53.594;10.034;2022-10-23T02:55:10;15.65;;;12.82;;
55037;SDS011;40937;53.594;10.034;2022-10-23T02:57:49;20.77;;;11.98;;
55037;SDS011;40937;53.594;10.034;2022-10-23T03:00:23;15.27;;;13.57;;
55037;SDS011;40937;53.594;10.034;2022-10-23T03:02:52;12.85;;;11.52;;
55037;SDS011;40937;53.594;10.034;2022-10-23T03:05:27;12.50;;;11.40;;
55037;SDS011;40937;53.594;10.034;2022-10-23T03:08:29;14.35;;;12.25;;
55037;SDS011;40937;53.594;10.034;2022-10-23T03:11:18;14.88;;;11.38;;
55037;SDS011;40937;53.594;10.034;2022-10-23T03:14:09;14.52;;;11.90;;
55037;SDS011;40937;53.594;10.034;2022-10-23T03:16:55;15.52;;;13.23;;
55037;SDS011;40937;53.594;10.034;2022-10-23T03:19:42;16.05;;;12.15;;
55037;SDS011;40937;53.594;10.034;2022-10-23T03:22:37;21.77;;;13.02;;
55037;SDS011;40937;53.594;10.034;2022-10-23T03:25:16;14.00;;;12.65;;
55037;SDS011;40937;53.594;10.034;2022-10-23T03:28:10;16.98;;;12.63;;
55037;SDS011;40937;53.594;10.034;2022-10-23T03:30:48;14.93;;;11.55;;
55037;SDS011;40937;53.594;10.034;2022-10-23T03:33:57;14.68;;;12.20;;
55037;SDS011;40937;53.594;10.034;2022-10-23T03:40:02;14.57;;;12.40;;
55037;SDS011;40937;53.594;10.034;2022-10-23T03:43:01;19.13;;;12.77;;
55037;SDS011;40937;53.594;10.034;2022-10-23T03:46:18;26.52;;;12.88;;
55037;SDS011;40937;53.594;10.034;2022-10-23T03:49:42;14.82;;;13.30;;
55037;SDS011;40937;53.594;10.034;2022-10-23T03:52:37;14.02;;;12.60;;
55037;SDS011;40937;53.594;10.034;2022-10-23T03:55:43;15.43;;;11.60;;
55037;SDS011;40937;53.594;10.034;2022-10-23T03:58:39;12.63;;;11.32;;
55037;SDS011;40937;53.594;10.034;2022-10-23T04:02:07;20.45;;;12.40;;
55037;SDS011;40937;53.594;10.034;2022-10-23T04:09:10;11.77;;;10.63;;
55037;SDS011;40937;53.594;10.034;2022-10-23T04:12:55;18.08;;;12.00;;
55037;SDS011;40937;53.594;10.034;2022-10-23T04:15:53;14.77;;;10.82;;
55037;SDS011;40937;53.594;10.034;2022-10-23T04:19:20;14.40;;;10.98;;
55037;SDS011;40937;53.594;10.034;2022-10-23T04:22:24;17.40;;;11.10;;
55037;SDS011;40937;53.594;10.034;2022-10-23T04:32:22;12.20;;;9.65;;
55037;SDS011;40937;53.594;10.034;2022-10-23T04:35:26;13.30;;;9.57;;
55037;SDS011;40937;53.594;10.034;2022-10-23T04:38:45;12.75;;;10.32;;
55037;SDS011;40937;53.594;10.034;2022-10-23T04:44:34;12.52;;;9.75;;
55037;SDS011;40937;53.594;10.034;2022-10-23T04:47:29;16.55;;;10.20;;
55037;SDS011;40937;53.594;10.034;2022-10-23T04:50:20;10.13;;;8.70;;
55037;SDS011;40937;53.594;10.034;2022-10-23T04:53:48;12.07;;;9.27;;
55037;SDS011;40937;53.594;10.034;2022-10-23T04:57:30;9.65;;;8.40;;
55037;SDS011;40937;53.594;10.034;2022-10-23T05:00:59;12.45;;;8.85;;
55037;SDS011;40937;53.594;10.034;2022-10-23T05:03:55;10.68;;;8.32;;
55037;SDS011;40937;53.594;10.034;2022-10-23T05:06:54;12.50;;;8.27;;
55037;SDS011;40937;53.594;10.034;2022-10-23T05:09:52;9.82;;;8.80;;
55037;SDS011;40937;53.594;10.034;2022-10-23T05:12:55;10.32;;;8.98;;
55037;SDS011;40937;53.594;10.034;2022-10-23T05:15:42;9.48;;;8.57;;
55037;SDS011;40937;53.594;10.034;2022-10-23T05:18:13;11.80;;;9.40;;
55037;SDS011;40937;53.594;10.034;2022-10-23T05:21:30;9.30;;;8.55;;
55037;SDS011;40937;53.594;10.034;2022-10-23T05:24:24;9.90;;;8.95;;
55037;SDS011;40937;53.594;10.034;2022-10-23T05:27:01;11.52;;;10.00;;
55037;SDS011;40937;53.594;10.034;2022-10-23T05:29:44;10.40;;;9.30;;
55037;SDS011;40937;53.594;10.034;2022-10-23T05:32:32;10.20;;;9.20;;
55037;SDS011;40937;53.594;10.034;2022-10-23T05:35:12;10.38;;;9.50;;
55037;SDS011;40937;53.594;10.034;2022-10-23T05:41:40;14.70;;;9.25;;
55037;SDS011;40937;53.594;10.034;2022-10-23T05:44:48;9.40;;;8.50;;
55037;SDS011;40937;53.594;10.034;2022-10-23T05:48:12;11.23;;;9.68;;
55037;SDS011;40937;53.594;10.034;2022-10-23T05:51:34;10.82;;;9.70;;
55037;SDS011;40937;53.594;10.034;2022-10-23T05:54:51;10.20;;;9.13;;
55037;SDS011;40937;53.594;10.034;2022-10-23T05:58:07;11.63;;;9.50;;
55037;SDS011;40937;53.594;10.034;2022-10-23T06:01:19;10.60;;;9.63;;
55037;SDS011;40937;53.594;10.034;2022-10-23T06:04:47;12.27;;;9.27;;
55037;SDS011;40937;53.594;10.034;2022-10-23T06:08:04;10.93;;;9.82;;
55037;SDS011;40937;53.594;10.034;2022-10-23T06:14:10;10.30;;;9.35;;
55037;SDS011;40937;53.594;10.034;2022-10-23T06:16:56;23.00;;;9.93;;
55037;SDS011;40937;53.594;10.034;2022-10-23T06:24:01;11.83;;;8.47;;
55037;SDS011;40937;53.594;10.034;2022-10-23T06:27:00;14.55;;;8.65;;
55037;SDS011;40937;53.594;10.034;2022-10-23T06:29:42;9.25;;;8.35;;
55037;SDS011;40937;53.594;10.034;2022-10-23T06:32:30;13.35;;;8.82;;
55037;SDS011;40937;53.594;10.034;2022-10-23T06:35:54;10.23;;;9.20;;
55037;SDS011;40937;53.594;10.034;2022-10-23T06:42:28;10.00;;;8.93;;
55037;SDS011;40937;53.594;10.034;2022-10-23T06:45:39;10.60;;;9.60;;
55037;SDS011;40937;53.594;10.034;2022-10-23T06:49:04;14.25;;;9.43;;
55037;SDS011;40937;53.594;10.034;2022-10-23T06:56:34;11.35;;;10.35;;
55037;SDS011;40937;53.594;10.034;2022-10-23T06:59:46;12.15;;;9.38;;
55037;SDS011;40937;53.594;10.034;2022-10-23T07:06:23;11.07;;;8.07;;
55037;SDS011;40937;53.594;10.034;2022-10-23T07:09:05;9.35;;;8.38;;
55037;SDS011;40937;53.594;10.034;2022-10-23T07:11:49;12.60;;;8.27;;
55037;SDS011;40937;53.594;10.034;2022-10-23T07:14:18;10.35;;;8.43;;
55037;SDS011;40937;53.594;10.034;2022-10-23T07:16:45;15.27;;;8.30;;
55037;SDS011;40937;53.594;10.034;2022-10-23T07:19:12;8.43;;;7.60;;
55037;SDS011;40937;53.594;10.034;2022-10-23T07:21:52;8.70;;;7.88;;
55037;SDS011;40937;53.594;10.034;2022-10-23T07:24:36;7.85;;;7.05;;
55037;SDS011;40937;53.594;10.034;2022-10-23T07:27:14;11.98;;;7.82;;
55037;SDS011;40937;53.594;10.034;2022-10-23T07:29:41;8.57;;;7.78;;
55037;SDS011;40937;53.594;10.034;2022-10-23T07:32:08;11.27;;;7.75;;
55037;SDS011;40937;53.594;10.034;2022-10-23T07:34:53;12.55;;;7.70;;
55037;SDS011;40937;53.594;10.034;2022-10-23T07:37:30;10.40;;;7.57;;
55037;SDS011;40937;53.594;10.034;2022-10-23T07:39:59;11.23;;;7.70;;
55037;SDS011;40937;53.594;10.034;2022-10-23T07:42:26;8.63;;;7.03;;
55037;SDS011;40937;53.594;10.034;2022-10-23T07:44:52;7.60;;;6.93;;
55037;SDS011;40937;53.594;10.034;2022-10-23T07:47:19;12.95;;;7.55;;
55037;SDS011;40937;53.594;10.034;2022-10-23T07:49:49;12.02;;;7.60;;
55037;SDS011;40937;53.594;10.034;2022-10-23T07:52:18;12.63;;;7.50;;
55037;SDS011;40937;53.594;10.034;2022-10-23T07:55:05;11.35;;;7.40;;
55037;SDS011;40937;53.594;10.034;2022-10-23T07:57:36;10.18;;;6.55;;
55037;SDS011;40937;53.594;10.034;2022-10-23T08:00:15;10.90;;;7.40;;
55037;SDS011;40937;53.594;10.034;2022-10-23T08:02:53;9.63;;;7.28;;
55037;SDS011;40937;53.594;10.034;2022-10-23T08:05:19;12.27;;;7.03;;
55037;SDS011;40937;53.594;10.034;2022-10-23T08:07:55;8.68;;;7.07;;
55037;SDS011;40937;53.594;10.034;2022-10-23T08:10:24;11.88;;;6.55;;
55037;SDS011;40937;53.594;10.034;2022-10-23T08:12:50;11.50;;;6.47;;
55037;SDS011;40937;53.594;10.034;2022-10-23T08:15:22;10.50;;;6.53;;
55037;SDS011;40937;53.594;10.034;2022-10-23T08:17:58;8.85;;;6.90;;
55037;SDS011;40937;53.594;10.034;2022-10-23T08:20:37;9.73;;;5.90;;
55037;SDS011;40937;53.594;10.034;2022-10-23T08:23:04;8.07;;;6.13;;
55037;SDS011;40937;53.594;10.034;2022-10-23T08:25:33;6.90;;;5.53;;
55037;SDS011;40937;53.594;10.034;2022-10-23T08:28:00;11.13;;;6.20;;
55037;SDS011;40937;53.594;10.034;2022-10-23T08:30:33;9.98;;;5.90;;
55037;SDS011;40937;53.594;10.034;2022-10-23T08:33:01;7.53;;;6.03;;
55037;SDS011;40937;53.594;10.034;2022-10-23T08:35:28;14.05;;;5.75;;
55037;SDS011;40937;53.594;10.034;2022-10-23T08:37:55;12.73;;;6.25;;
55037;SDS011;40937;53.594;10.034;2022-10-23T08:40:24;8.75;;;6.20;;
55037;SDS011;40937;53.594;10.034;2022-10-23T08:43:12;7.07;;;5.35;;
55037;SDS011;40937;53.594;10.034;2022-10-23T08:45:57;14.18;;;6.00;;
55037;SDS011;40937;53.594;10.034;2022-10-23T08:48:48;8.57;;;5.97;;
55037;SDS011;40937;53.594;10.034;2022-10-23T08:51:34;6.60;;;5.80;;
55037;SDS011;40937;53.594;10.034;2022-10-23T08:54:04;8.70;;;5.55;;
55037;SDS011;40937;53.594;10.034;2022-10-23T08:56:38;9.57;;;5.38;;
55037;SDS011;40937;53.594;10.034;2022-10-23T08:59:10;9.02;;;5.22;;
55037;SDS011;40937;53.594;10.034;2022-10-23T09:01:45;11.70;;;5.90;;
55037;SDS011;40937;53.594;10.034;2022-10-23T09:04:14;9.55;;;4.97;;
55037;SDS011;40937;53.594;10.034;2022-10-23T09:06:43;11.05;;;5.00;;
55037;SDS011;40937;53.594;10.034;2022-10-23T09:09:18;5.53;;;4.82;;
55037;SDS011;40937;53.594;10.034;2022-10-23T09:11:56;7.45;;;4.68;;
55037;SDS011;40937;53.594;10.034;2022-10-23T09:14:39;12.27;;;5.45;;
55037;SDS011;40937;53.594;10.034;2022-10-23T09:17:22;8.85;;;5.03;;
55037;SDS011;40937;53.594;10.034;2022-10-23T09:19:53;9.52;;;5.07;;
55037;SDS011;40937;53.594;10.034;2022-10-23T09:22:24;13.23;;;5.85;;
55037;SDS011;40937;53.594;10.034;2022-10-23T09:24:52;9.85;;;4.72;;
55037;SDS011;40937;53.594;10.034;2022-10-23T09:27:18;14.70;;;5.28;;
55037;SDS011;40937;53.594;10.034;2022-10-23T09:29:47;7.15;;;4.70;;
55037;SDS011;40937;53.594;10.034;2022-10-23T09:32:15;8.80;;;4.75;;
55037;SDS011;40937;53.594;10.034;2022-10-23T09:34:52;9.20;;;4.18;;
55037;SDS011;40937;53.594;10.034;2022-10-23T09:37:21;12.23;;;4.68;;
55037;SDS011;40937;53.594;10.034;2022-10-23T09:39:59;9.20;;;4.32;;
55037;SDS011;40937;53.594;10.034;2022-10-23T09:42:28;8.38;;;4.40;;
55037;SDS011;40937;53.594;10.034;2022-10-23T09:44:56;7.75;;;4.53;;
55037;SDS011;40937;53.594;10.034;2022-10-23T09:47:23;8.85;;;4.47;;
55037;SDS011;40937;53.594;10.034;2022-10-23T09:49:53;7.25;;;4.35;;
55037;SDS011;40937;53.594;10.034;2022-10-23T09:52:22;8.75;;;4.47;;
55037;SDS011;40937;53.594;10.034;2022-10-23T09:54:52;6.30;;;4.20;;
55037;SDS011;40937;53.594;10.034;2022-10-23T09:57:21;8.00;;;4.50;;
55037;SDS011;40937;53.594;10.034;2022-10-23T09:59:50;7.97;;;4.13;;
55037;SDS011;40937;53.594;10.034;2022-10-23T10:02:22;6.93;;;4.50;;
55037;SDS011;40937;53.594;10.034;2022-10-23T10:05:19;7.97;;;4.35;;
55037;SDS011;40937;53.594;10.034;2022-10-23T10:07:52;8.80;;;4.30;;
55037;SDS011;40937;53.594;10.034;2022-10-23T10:10:21;7.57;;;4.80;;
55037;SDS011;40937;53.594;10.034;2022-10-23T10:12:49;10.60;;;4.82;;
55037;SDS011;40937;53.594;10.034;2022-10-23T10:15:21;13.32;;;4.88;;
55037;SDS011;40937;53.594;10.034;2022-10-23T10:17:58;10.10;;;4.63;;
55037;SDS011;40937;53.594;10.034;2022-10-23T10:20:40;9.75;;;4.47;;
55037;SDS011;40937;53.594;10.034;2022-10-23T10:23:17;9.73;;;4.70;;
55037;SDS011;40937;53.594;10.034;2022-10-23T10:25:55;11.18;;;4.82;;
55037;SDS011;40937;53.594;10.034;2022-10-23T10:28:35;8.30;;;4.53;;
55037;SDS011;40937;53.594;10.034;2022-10-23T10:31:21;9.05;;;5.45;;
55037;SDS011;40937;53.594;10.034;2022-10-23T10:33:59;7.38;;;4.97;;
55037;SDS011;40937;53.594;10.034;2022-10-23T10:36:38;12.98;;;4.78;;
55037;SDS011;40937;53.594;10.034;2022-10-23T10:39:14;10.35;;;4.75;;
55037;SDS011;40937;53.594;10.034;2022-10-23T10:41:54;6.75;;;4.45;;
55037;SDS011;40937;53.594;10.034;2022-10-23T10:44:44;11.05;;;4.30;;
55037;SDS011;40937;53.594;10.034;2022-10-23T10:47:20;7.55;;;4.75;;
55037;SDS011;40937;53.594;10.034;2022-10-23T10:49:58;9.30;;;5.00;;
55037;SDS011;40937;53.594;10.034;2022-10-23T10:52:44;9.27;;;4.57;;
55037;SDS011;40937;53.594;10.034;2022-10-23T10:55:17;12.40;;;5.00;;
55037;SDS011;40937;53.594;10.034;2022-10-23T10:57:50;9.45;;;4.65;;
55037;SDS011;40937;53.594;10.034;2022-10-23T11:00:23;10.05;;;4.85;;
55037;SDS011;40937;53.594;10.034;2022-10-23T11:02:50;8.07;;;4.40;;
55037;SDS011;40937;53.594;10.034;2022-10-23T11:05:26;7.40;;;5.18;;
55037;SDS011;40937;53.594;10.034;2022-10-23T11:07:58;8.85;;;5.05;;
55037;SDS011;40937;53.594;10.034;2022-10-23T11:10:29;8.20;;;4.70;;
55037;SDS011;40937;53.594;10.034;2022-10-23T11:12:57;7.03;;;4.05;;
55037;SDS011;40937;53.594;10.034;2022-10-23T11:15:26;10.82;;;4.85;;
55037;SDS011;40937;53.594;10.034;2022-10-23T11:17:55;16.63;;;5.05;;
55037;SDS011;40937;53.594;10.034;2022-10-23T11:20:35;12.07;;;5.00;;
55037;SDS011;40937;53.594;10.034;2022-10-23T11:23:20;7.93;;;4.90;;
55037;SDS011;40937;53.594;10.034;2022-10-23T11:26:04;7.20;;;5.00;;
55037;SDS011;40937;53.594;10.034;2022-10-23T11:40:19;9.13;;;4.80;;
55037;SDS011;40937;53.594;10.034;2022-10-23T11:42:49;8.85;;;4.95;;
55037;SDS011;40937;53.594;10.034;2022-10-23T11:48:18;7.10;;;4.45;;
55037;SDS011;40937;53.594;10.034;2022-10-23T11:50:50;11.88;;;5.00;;
55037;SDS011;40937;53.594;10.034;2022-10-23T11:53:26;6.30;;;4.70;;
55037;SDS011;40937;53.594;10.034;2022-10-23T11:56:19;9.88;;;4.35;;
55037;SDS011;40937;53.594;10.034;2022-10-23T11:58:50;8.60;;;4.38;;
55037;SDS011;40937;53.594;10.034;2022-10-23T12:01:20;8.05;;;4.65;;
55037;SDS011;40937;53.594;10.034;2022-10-23T12:03:54;8.68;;;4.32;;
55037;SDS011;40937;53.594;10.034;2022-10-23T12:06:26;11.10;;;4.28;;
55037;SDS011;40937;53.594;10.034;2022-10-23T12:08:59;13.50;;;4.63;;
55037;SDS011;40937;53.594;10.034;2022-10-23T12:11:41;22.10;;;4.78;;
55037;SDS011;40937;53.594;10.034;2022-10-23T12:16:56;5.18;;;4.03;;
55037;SDS011;40937;53.594;10.034;2022-10-23T12:19:24;8.95;;;4.07;;
55037;SDS011;40937;53.594;10.034;2022-10-23T12:21:53;9.57;;;4.20;;
55037;SDS011;40937;53.594;10.034;2022-10-23T12:24:28;6.82;;;3.55;;
55037;SDS011;40937;53.594;10.034;2022-10-23T12:27:18;11.93;;;3.65;;
55037;SDS011;40937;53.594;10.034;2022-10-23T12:29:58;10.85;;;4.03;;
55037;SDS011;40937;53.594;10.034;2022-10-23T12:32:41;10.07;;;4.00;;
55037;SDS011;40937;53.594;10.034;2022-10-23T12:35:27;8.77;;;4.18;;
55037;SDS011;40937;53.594;10.034;2022-10-23T12:38:12;12.50;;;4.10;;
55037;SDS011;40937;53.594;10.034;2022-10-23T12:40:42;7.10;;;3.20;;
55037;SDS011;40937;53.594;10.034;2022-10-23T12:43:21;4.97;;;4.13;;
55037;SDS011;40937;53.594;10.034;2022-10-23T12:45:50;10.07;;;4.65;;
55037;SDS011;40937;53.594;10.034;2022-10-23T12:48:17;9.00;;;4.40;;
55037;SDS011;40937;53.594;10.034;2022-10-23T12:50:47;8.88;;;4.68;;
55037;SDS011;40937;53.594;10.034;2022-10-23T12:53:16;9.10;;;4.30;;
55037;SDS011;40937;53.594;10.034;2022-10-23T12:55:47;8.88;;;4.82;;
55037;SDS011;40937;53.594;10.034;2022-10-23T12:58:22;13.48;;;4.35;;
55037;SDS011;40937;53.594;10.034;2022-10-23T13:00:54;10.68;;;4.25;;
55037;SDS011;40937;53.594;10.034;2022-10-23T13:03:23;10.88;;;4.40;;
55037;SDS011;40937;53.594;10.034;2022-10-23T13:05:51;10.02;;;3.72;;
55037;SDS011;40937;53.594;10.034;2022-10-23T13:08:20;7.82;;;3.63;;
55037;SDS011;40937;53.594;10.034;2022-10-23T13:11:08;6.90;;;3.58;;
55037;SDS011;40937;53.594;10.034;2022-10-23T13:13:41;7.50;;;3.63;;
55037;SDS011;40937;53.594;10.034;2022-10-23T13:16:13;9.63;;;4.10;;
55037;SDS011;40937;53.594;10.034;2022-10-23T13:18:41;7.55;;;3.70;;
55037;SDS011;40937;53.594;10.034;2022-10-23T13:21:13;12.68;;;3.55;;
55037;SDS011;40937;53.594;10.034;2022-10-23T13:23:43;7.63;;;3.15;;
55037;SDS011;40937;53.594;10.034;2022-10-23T13:26:24;8.52;;;2.90;;
55037;SDS011;40937;53.594;10.034;2022-10-23T13:28:56;8.63;;;3.50;;
55037;SDS011;40937;53.594;10.034;2022-10-23T13:31:25;6.05;;;3.33;;
55037;SDS011;40937;53.594;10.034;2022-10-23T13:34:15;5.35;;;3.20;;
55037;SDS011;40937;53.594;10.034;2022-10-23T13:36:54;15.68;;;3.30;;
55037;SDS011;40937;53.594;10.034;2022-10-23T13:39:26;11.88;;;3.40;;
55037;SDS011;40937;53.594;10.034;2022-10-23T13:41:55;10.38;;;3.55;;
55037;SDS011;40937;53.594;10.034;2022-10-23T13:44:26;4.22;;;3.47;;
55037;SDS011;40937;53.594;10.034;2022-10-23T13:46:53;11.32;;;3.40;;
55037;SDS011;40937;53.594;10.034;2022-10-23T13:49:21;8.20;;;3.03;;
55037;SDS011;40937;53.594;10.034;2022-10-23T13:51:49;7.10;;;2.83;;
55037;SDS011;40937;53.594;10.034;2022-10-23T13:54:19;8.25;;;3.05;;
55037;SDS011;40937;53.594;10.034;2022-10-23T13:56:48;26.92;;;3.20;;
55037;SDS011;40937;53.594;10.034;2022-10-23T13:59:16;5.85;;;2.90;;
55037;SDS011;40937;53.594;10.034;2022-10-23T14:01:44;9.52;;;3.17;;
55037;SDS011;40937;53.594;10.034;2022-10-23T14:04:12;5.38;;;3.17;;
55037;SDS011;40937;53.594;10.034;2022-10-23T14:06:40;10.73;;;3.45;;
55037;SDS011;40937;53.594;10.034;2022-10-23T14:09:09;9.45;;;3.42;;
55037;SDS011;40937;53.594;10.034;2022-10-23T14:11:37;6.97;;;3.13;;
55037;SDS011;40937;53.594;10.034;2022-10-23T14:14:04;6.82;;;2.97;;
55037;SDS011;40937;53.594;10.034;2022-10-23T14:16:31;9.50;;;3.75;;
55037;SDS011;40937;53.594;10.034;2022-10-23T14:18:59;7.32;;;3.75;;
55037;SDS011;40937;53.594;10.034;2022-10-23T14:21:25;8.20;;;4.15;;
55037;SDS011;40937;53.594;10.034;2022-10-23T14:23:52;12.77;;;4.50;;
55037;SDS011;40937;53.594;10.034;2022-10-23T14:26:20;8.75;;;4.35;;
55037;SDS011;40937;53.594;10.034;2022-10-23T14:28:47;8.00;;;4.88;;
55037;SDS011;40937;53.594;10.034;2022-10-23T14:31:16;8.57;;;3.85;;
55037;SDS011;40937;53.594;10.034;2022-10-23T14:33:44;8.50;;;4.35;;
55037;SDS011;40937;53.594;10.034;2022-10-23T14:36:12;7.60;;;3.05;;
55037;SDS011;40937;53.594;10.034;2022-10-23T14:38:39;9.82;;;4.07;;
55037;SDS011;40937;53.594;10.034;2022-10-23T14:41:09;7.20;;;3.75;;
55037;SDS011;40937;53.594;10.034;2022-10-23T14:43:37;8.55;;;4.38;;
55037;SDS011;40937;53.594;10.034;2022-10-23T14:46:08;7.60;;;3.72;;
55037;SDS011;40937;53.594;10.034;2022-10-23T14:48:35;7.10;;;3.58;;
55037;SDS011;40937;53.594;10.034;2022-10-23T14:51:04;6.47;;;3.75;;
55037;SDS011;40937;53.594;10.034;2022-10-23T14:53:32;7.78;;;3.72;;
55037;SDS011;40937;53.594;10.034;2022-10-23T14:56:00;5.88;;;3.35;;
55037;SDS011;40937;53.594;10.034;2022-10-23T14:58:27;9.90;;;3.67;;
55037;SDS011;40937;53.594;10.034;2022-10-23T15:00:57;6.32;;;3.42;;
55037;SDS011;40937;53.594;10.034;2022-10-23T15:03:23;6.35;;;3.35;;
55037;SDS011;40937;53.594;10.034;2022-10-23T15:05:50;13.18;;;4.15;;
55037;SDS011;40937;53.594;10.034;2022-10-23T15:08:17;5.65;;;4.00;;
55037;SDS011;40937;53.594;10.034;2022-10-23T15:10:45;10.48;;;3.80;;
55037;SDS011;40937;53.594;10.034;2022-10-23T15:13:11;8.95;;;4.18;;
55037;SDS011;40937;53.594;10.034;2022-10-23T15:15:38;8.45;;;3.40;;
55037;SDS011;40937;53.594;10.034;2022-10-23T15:18:05;10.43;;;4.25;;
55037;SDS011;40937;53.594;10.034;2022-10-23T15:20:31;9.93;;;4.50;;
55037;SDS011;40937;53.594;10.034;2022-10-23T15:22:58;5.97;;;3.88;;
55037;SDS011;40937;53.594;10.034;2022-10-23T15:25:25;8.75;;;4.13;;
55037;SDS011;40937;53.594;10.034;2022-10-23T15:27:57;9.15;;;4.00;;
55037;SDS011;40937;53.594;10.034;2022-10-23T15:30:23;7.50;;;4.20;;
55037;SDS011;40937;53.594;10.034;2022-10-23T15:32:50;10.07;;;3.80;;
55037;SDS011;40937;53.594;10.034;2022-10-23T15:35:17;5.47;;;3.50;;
55037;SDS011;40937;53.594;10.034;2022-10-23T15:37:43;7.05;;;4.05;;
55037;SDS011;40937;53.594;10.034;2022-10-23T15:40:10;6.78;;;4.57;;
55037;SDS011;40937;53.594;10.034;2022-10-23T15:42:37;10.45;;;3.75;;
55037;SDS011;40937;53.594;10.034;2022-10-23T15:45:06;13.07;;;4.43;;
55037;SDS011;40937;53.594;10.034;2022-10-23T15:47:33;9.40;;;4.40;;
55037;SDS011;40937;53.594;10.034;2022-10-23T15:50:00;5.00;;;4.40;;
55037;SDS011;40937;53.594;10.034;2022-10-23T15:52:26;12.85;;;4.88;;
55037;SDS011;40937;53.594;10.034;2022-10-23T15:54:53;6.65;;;3.97;;
55037;SDS011;40937;53.594;10.034;2022-10-23T15:57:20;7.60;;;4.22;;
55037;SDS011;40937;53.594;10.034;2022-10-23T15:59:46;12.30;;;4.38;;
55037;SDS011;40937;53.594;10.034;2022-10-23T16:02:14;8.77;;;4.60;;
55037;SDS011;40937;53.594;10.034;2022-10-23T16:04:41;8.90;;;4.75;;
55037;SDS011;40937;53.594;10.034;2022-10-23T16:07:08;10.05;;;5.22;;
55037;SDS011;40937;53.594;10.034;2022-10-23T16:09:34;11.00;;;4.32;;
55037;SDS011;40937;53.594;10.034;2022-10-23T16:12:01;6.85;;;4.47;;
55037;SDS011;40937;53.594;10.034;2022-10-23T16:14:28;10.63;;;4.97;;
55037;SDS011;40937;53.594;10.034;2022-10-23T16:16:55;11.82;;;4.47;;
55037;SDS011;40937;53.594;10.034;2022-10-23T16:19:23;9.85;;;4.72;;
55037;SDS011;40937;53.594;10.034;2022-10-23T16:21:49;6.93;;;3.88;;
55037;SDS011;40937;53.594;10.034;2022-10-23T16:24:16;5.72;;;4.45;;